sensor_id;sensor_type;location;lat;lon;timestamp;P1;durP1;ratioP1;P2;durP2;ratioP2
81952;SDS011;71454;55.476;14.282;2024-01-30T00:01:16;9.15;;;3.83;;
81952;SDS011;71454;55.476;14.282;2024-01-30T00:03:42;9.82;;;4.38;;
81952;SDS011;71454;55.476;14.282;2024-01-30T00:06:07;9.25;;;4.10;;
81952;SDS011;71454;55.476;14.282;2024-01-30T00:08:33;11.25;;;4.28;;
81952;SDS011;71454;55.476;14.282;2024-01-30T00:10:58;8.95;;;3.83;;
81952;SDS011;71454;55.476;14.282;2024-01-30T00:13:24;9.80;;;4.43;;
81952;SDS011;71454;55.476;14.282;2024-01-30T00:15:49;9.67;;;4.03;;
81952;SDS011;71454;55.476;14.282;2024-01-30T00:18:14;12.10;;;4.72;;
81952;SDS011;71454;55.476;14.282;2024-01-30T00:20:40;9.07;;;4.37;;
81952;SDS011;71454;55.476;14.282;2024-01-30T00:23:05;9.55;;;4.40;;
81952;SDS011;71454;55.476;14.282;2024-01-30T00:25:30;12.00;;;4.23;;
81952;SDS011;71454;55.476;14.282;2024-01-30T00:27:56;9.67;;;3.80;;
81952;SDS011;71454;55.476;14.282;2024-01-30T00:30:21;10.75;;;4.03;;
81952;SDS011;71454;55.476;14.282;2024-01-30T00:32:46;10.40;;;4.55;;
81952;SDS011;71454;55.476;14.282;2024-01-30T00:35:12;11.32;;;4.03;;
81952;SDS011;71454;55.476;14.282;2024-01-30T00:37:37;8.98;;;4.60;;
81952;SDS011;71454;55.476;14.282;2024-01-30T00:40:03;10.68;;;4.40;;
81952;SDS011;71454;55.476;14.282;2024-01-30T00:42:28;11.23;;;4.35;;
81952;SDS011;71454;55.476;14.282;2024-01-30T00:44:54;11.32;;;4.60;;
81952;SDS011;71454;55.476;14.282;2024-01-30T00:47:19;8.07;;;3.50;;
81952;SDS011;71454;55.476;14.282;2024-01-30T00:49:44;8.83;;;3.57;;
81952;SDS011;71454;55.476;14.282;2024-01-30T00:52:09;9.93;;;4.05;;
81952;SDS011;71454;55.476;14.282;2024-01-30T00:54:35;9.10;;;4.00;;
81952;SDS011;71454;55.476;14.282;2024-01-30T00:57:00;9.35;;;4.20;;
81952;SDS011;71454;55.476;14.282;2024-01-30T00:59:25;9.55;;;3.97;;
81952;SDS011;71454;55.476;14.282;2024-01-30T01:01:51;8.97;;;4.00;;
81952;SDS011;71454;55.476;14.282;2024-01-30T01:04:16;9.38;;;3.67;;
81952;SDS011;71454;55.476;14.282;2024-01-30T01:06:42;8.80;;;4.32;;
81952;SDS011;71454;55.476;14.282;2024-01-30T01:09:09;11.63;;;4.53;;
81952;SDS011;71454;55.476;14.282;2024-01-30T01:11:35;8.85;;;3.70;;
81952;SDS011;71454;55.476;14.282;2024-01-30T01:14:00;9.75;;;3.92;;
81952;SDS011;71454;55.476;14.282;2024-01-30T01:16:25;10.33;;;4.97;;
81952;SDS011;71454;55.476;14.282;2024-01-30T01:18:51;11.88;;;4.75;;
81952;SDS011;71454;55.476;14.282;2024-01-30T01:21:16;9.63;;;4.30;;
81952;SDS011;71454;55.476;14.282;2024-01-30T01:23:41;12.50;;;5.10;;
81952;SDS011;71454;55.476;14.282;2024-01-30T01:26:07;10.10;;;4.65;;
81952;SDS011;71454;55.476;14.282;2024-01-30T01:28:32;13.63;;;5.28;;
81952;SDS011;71454;55.476;14.282;2024-01-30T01:30:58;13.80;;;6.00;;
81952;SDS011;71454;55.476;14.282;2024-01-30T01:33:30;10.35;;;5.28;;
81952;SDS011;71454;55.476;14.282;2024-01-30T01:35:55;14.00;;;5.77;;
81952;SDS011;71454;55.476;14.282;2024-01-30T01:38:20;11.80;;;5.38;;
81952;SDS011;71454;55.476;14.282;2024-01-30T01:40:46;13.50;;;5.55;;
81952;SDS011;71454;55.476;14.282;2024-01-30T01:43:11;13.60;;;5.82;;
81952;SDS011;71454;55.476;14.282;2024-01-30T01:45:36;10.68;;;5.75;;
81952;SDS011;71454;55.476;14.282;2024-01-30T01:48:02;13.60;;;5.15;;
81952;SDS011;71454;55.476;14.282;2024-01-30T01:50:27;11.50;;;5.53;;
81952;SDS011;71454;55.476;14.282;2024-01-30T01:52:53;11.18;;;5.22;;
81952;SDS011;71454;55.476;14.282;2024-01-30T01:55:19;12.38;;;6.03;;
81952;SDS011;71454;55.476;14.282;2024-01-30T01:57:50;12.45;;;5.85;;
81952;SDS011;71454;55.476;14.282;2024-01-30T02:00:16;12.93;;;6.57;;
81952;SDS011;71454;55.476;14.282;2024-01-30T02:02:44;13.25;;;6.05;;
81952;SDS011;71454;55.476;14.282;2024-01-30T02:05:10;14.30;;;6.35;;
81952;SDS011;71454;55.476;14.282;2024-01-30T02:07:36;12.57;;;6.25;;
81952;SDS011;71454;55.476;14.282;2024-01-30T02:10:01;13.32;;;6.35;;
81952;SDS011;71454;55.476;14.282;2024-01-30T02:12:28;12.75;;;6.13;;
81952;SDS011;71454;55.476;14.282;2024-01-30T02:14:54;13.70;;;6.75;;
81952;SDS011;71454;55.476;14.282;2024-01-30T02:17:20;16.13;;;6.57;;
81952;SDS011;71454;55.476;14.282;2024-01-30T02:19:46;17.25;;;7.43;;
81952;SDS011;71454;55.476;14.282;2024-01-30T02:22:11;15.35;;;8.02;;
81952;SDS011;71454;55.476;14.282;2024-01-30T02:24:36;14.88;;;7.45;;
81952;SDS011;71454;55.476;14.282;2024-01-30T02:27:02;18.73;;;7.88;;
81952;SDS011;71454;55.476;14.282;2024-01-30T02:29:27;18.10;;;8.57;;
81952;SDS011;71454;55.476;14.282;2024-01-30T02:31:52;20.08;;;9.27;;
81952;SDS011;71454;55.476;14.282;2024-01-30T02:34:18;17.30;;;7.80;;
81952;SDS011;71454;55.476;14.282;2024-01-30T02:36:44;18.85;;;8.73;;
81952;SDS011;71454;55.476;14.282;2024-01-30T02:39:12;21.17;;;9.60;;
81952;SDS011;71454;55.476;14.282;2024-01-30T02:41:38;19.02;;;8.68;;
81952;SDS011;71454;55.476;14.282;2024-01-30T02:44:03;17.13;;;8.35;;
81952;SDS011;71454;55.476;14.282;2024-01-30T02:46:29;23.10;;;9.35;;
81952;SDS011;71454;55.476;14.282;2024-01-30T02:48:54;20.05;;;9.07;;
81952;SDS011;71454;55.476;14.282;2024-01-30T02:51:19;24.08;;;10.35;;
81952;SDS011;71454;55.476;14.282;2024-01-30T02:53:45;22.52;;;9.65;;
81952;SDS011;71454;55.476;14.282;2024-01-30T02:56:10;23.17;;;10.10;;
81952;SDS011;71454;55.476;14.282;2024-01-30T02:58:36;20.73;;;10.32;;
81952;SDS011;71454;55.476;14.282;2024-01-30T03:01:01;20.70;;;10.10;;
81952;SDS011;71454;55.476;14.282;2024-01-30T03:03:27;25.67;;;9.95;;
81952;SDS011;71454;55.476;14.282;2024-01-30T03:05:52;21.10;;;10.10;;
81952;SDS011;71454;55.476;14.282;2024-01-30T03:08:17;25.40;;;10.30;;
81952;SDS011;71454;55.476;14.282;2024-01-30T03:10:42;23.73;;;9.87;;
81952;SDS011;71454;55.476;14.282;2024-01-30T03:13:08;24.40;;;10.80;;
81952;SDS011;71454;55.476;14.282;2024-01-30T03:15:34;20.83;;;10.77;;
81952;SDS011;71454;55.476;14.282;2024-01-30T03:18:00;27.10;;;10.90;;
81952;SDS011;71454;55.476;14.282;2024-01-30T03:20:25;27.10;;;11.48;;
81952;SDS011;71454;55.476;14.282;2024-01-30T03:22:50;26.70;;;12.02;;
81952;SDS011;71454;55.476;14.282;2024-01-30T03:25:15;24.88;;;11.68;;
81952;SDS011;71454;55.476;14.282;2024-01-30T03:27:41;27.55;;;11.95;;
81952;SDS011;71454;55.476;14.282;2024-01-30T03:30:06;25.38;;;11.05;;
81952;SDS011;71454;55.476;14.282;2024-01-30T03:32:31;25.92;;;12.02;;
81952;SDS011;71454;55.476;14.282;2024-01-30T03:34:57;25.90;;;12.53;;
81952;SDS011;71454;55.476;14.282;2024-01-30T03:37:23;33.55;;;12.85;;
81952;SDS011;71454;55.476;14.282;2024-01-30T03:39:48;26.15;;;11.50;;
81952;SDS011;71454;55.476;14.282;2024-01-30T03:42:13;27.77;;;12.65;;
81952;SDS011;71454;55.476;14.282;2024-01-30T03:44:39;26.75;;;12.23;;
81952;SDS011;71454;55.476;14.282;2024-01-30T03:47:04;26.23;;;12.88;;
81952;SDS011;71454;55.476;14.282;2024-01-30T03:49:29;28.00;;;12.98;;
81952;SDS011;71454;55.476;14.282;2024-01-30T03:51:55;27.75;;;12.48;;
81952;SDS011;71454;55.476;14.282;2024-01-30T03:54:20;29.02;;;13.65;;
81952;SDS011;71454;55.476;14.282;2024-01-30T03:56:45;28.60;;;12.38;;
81952;SDS011;71454;55.476;14.282;2024-01-30T03:59:10;26.92;;;12.13;;
81952;SDS011;71454;55.476;14.282;2024-01-30T04:01:36;30.75;;;12.52;;
81952;SDS011;71454;55.476;14.282;2024-01-30T04:04:01;28.05;;;12.93;;
81952;SDS011;71454;55.476;14.282;2024-01-30T04:06:26;33.43;;;12.63;;
81952;SDS011;71454;55.476;14.282;2024-01-30T04:08:51;31.90;;;11.90;;
81952;SDS011;71454;55.476;14.282;2024-01-30T04:11:18;31.27;;;13.07;;
81952;SDS011;71454;55.476;14.282;2024-01-30T04:13:43;25.67;;;12.25;;
81952;SDS011;71454;55.476;14.282;2024-01-30T04:16:18;32.15;;;12.73;;
81952;SDS011;71454;55.476;14.282;2024-01-30T04:18:43;32.80;;;12.13;;
81952;SDS011;71454;55.476;14.282;2024-01-30T04:21:09;37.57;;;13.37;;
81952;SDS011;71454;55.476;14.282;2024-01-30T04:23:34;28.52;;;12.93;;
81952;SDS011;71454;55.476;14.282;2024-01-30T04:25:59;33.40;;;13.60;;
81952;SDS011;71454;55.476;14.282;2024-01-30T04:28:24;27.87;;;11.70;;
81952;SDS011;71454;55.476;14.282;2024-01-30T04:30:50;34.27;;;12.83;;
81952;SDS011;71454;55.476;14.282;2024-01-30T04:33:15;35.10;;;13.10;;
81952;SDS011;71454;55.476;14.282;2024-01-30T04:35:43;44.13;;;15.23;;
81952;SDS011;71454;55.476;14.282;2024-01-30T04:38:08;46.37;;;14.57;;
81952;SDS011;71454;55.476;14.282;2024-01-30T04:40:33;57.17;;;16.75;;
81952;SDS011;71454;55.476;14.282;2024-01-30T04:42:59;53.17;;;15.40;;
81952;SDS011;71454;55.476;14.282;2024-01-30T04:45:24;48.28;;;14.70;;
81952;SDS011;71454;55.476;14.282;2024-01-30T04:47:49;55.67;;;15.27;;
81952;SDS011;71454;55.476;14.282;2024-01-30T04:50:15;51.42;;;14.88;;
81952;SDS011;71454;55.476;14.282;2024-01-30T04:52:40;56.05;;;14.75;;
81952;SDS011;71454;55.476;14.282;2024-01-30T04:55:06;58.45;;;14.20;;
81952;SDS011;71454;55.476;14.282;2024-01-30T04:57:31;50.55;;;13.65;;
81952;SDS011;71454;55.476;14.282;2024-01-30T04:59:58;49.88;;;13.75;;
81952;SDS011;71454;55.476;14.282;2024-01-30T05:02:24;61.20;;;15.00;;
81952;SDS011;71454;55.476;14.282;2024-01-30T05:04:49;59.67;;;12.70;;
81952;SDS011;71454;55.476;14.282;2024-01-30T05:07:14;40.20;;;12.05;;
81952;SDS011;71454;55.476;14.282;2024-01-30T05:09:39;59.30;;;13.73;;
81952;SDS011;71454;55.476;14.282;2024-01-30T05:12:05;40.22;;;11.32;;
81952;SDS011;71454;55.476;14.282;2024-01-30T05:14:30;47.08;;;11.90;;
81952;SDS011;71454;55.476;14.282;2024-01-30T05:16:55;41.38;;;11.60;;
81952;SDS011;71454;55.476;14.282;2024-01-30T05:19:21;48.83;;;12.27;;
81952;SDS011;71454;55.476;14.282;2024-01-30T05:21:48;43.25;;;12.73;;
81952;SDS011;71454;55.476;14.282;2024-01-30T05:24:13;47.58;;;11.65;;
81952;SDS011;71454;55.476;14.282;2024-01-30T05:26:38;49.80;;;13.10;;
81952;SDS011;71454;55.476;14.282;2024-01-30T05:29:04;40.95;;;11.57;;
81952;SDS011;71454;55.476;14.282;2024-01-30T05:31:29;39.25;;;11.00;;
81952;SDS011;71454;55.476;14.282;2024-01-30T05:33:55;38.47;;;10.10;;
81952;SDS011;71454;55.476;14.282;2024-01-30T05:36:20;40.50;;;10.67;;
81952;SDS011;71454;55.476;14.282;2024-01-30T05:38:46;38.40;;;10.18;;
81952;SDS011;71454;55.476;14.282;2024-01-30T05:41:12;73.25;;;13.40;;
81952;SDS011;71454;55.476;14.282;2024-01-30T05:43:37;45.15;;;11.57;;
81952;SDS011;71454;55.476;14.282;2024-01-30T05:46:02;47.97;;;11.35;;
81952;SDS011;71454;55.476;14.282;2024-01-30T05:48:27;37.42;;;10.23;;
81952;SDS011;71454;55.476;14.282;2024-01-30T05:50:53;43.53;;;11.38;;
81952;SDS011;71454;55.476;14.282;2024-01-30T05:53:18;38.97;;;9.93;;
81952;SDS011;71454;55.476;14.282;2024-01-30T05:55:43;54.28;;;11.73;;
81952;SDS011;71454;55.476;14.282;2024-01-30T05:58:09;68.82;;;12.63;;
81952;SDS011;71454;55.476;14.282;2024-01-30T06:00:34;42.83;;;12.13;;
81952;SDS011;71454;55.476;14.282;2024-01-30T06:02:59;55.53;;;11.70;;
81952;SDS011;71454;55.476;14.282;2024-01-30T06:05:24;51.40;;;11.15;;
81952;SDS011;71454;55.476;14.282;2024-01-30T06:07:50;58.57;;;14.03;;
81952;SDS011;71454;55.476;14.282;2024-01-30T06:10:15;37.72;;;11.50;;
81952;SDS011;71454;55.476;14.282;2024-01-30T06:12:40;58.53;;;11.93;;
81952;SDS011;71454;55.476;14.282;2024-01-30T06:15:06;41.63;;;11.63;;
81952;SDS011;71454;55.476;14.282;2024-01-30T06:17:31;48.30;;;11.82;;
81952;SDS011;71454;55.476;14.282;2024-01-30T06:19:57;70.18;;;12.88;;
81952;SDS011;71454;55.476;14.282;2024-01-30T06:22:22;50.88;;;11.43;;
81952;SDS011;71454;55.476;14.282;2024-01-30T06:24:48;51.90;;;11.20;;
81952;SDS011;71454;55.476;14.282;2024-01-30T06:27:14;68.97;;;12.45;;
81952;SDS011;71454;55.476;14.282;2024-01-30T06:29:39;49.20;;;12.40;;
81952;SDS011;71454;55.476;14.282;2024-01-30T06:32:05;56.65;;;10.82;;
81952;SDS011;71454;55.476;14.282;2024-01-30T06:34:30;40.22;;;11.00;;
81952;SDS011;71454;55.476;14.282;2024-01-30T06:36:55;60.70;;;11.97;;
81952;SDS011;71454;55.476;14.282;2024-01-30T06:39:21;56.23;;;10.80;;
81952;SDS011;71454;55.476;14.282;2024-01-30T06:41:46;46.83;;;11.27;;
81952;SDS011;71454;55.476;14.282;2024-01-30T06:44:12;65.68;;;12.20;;
81952;SDS011;71454;55.476;14.282;2024-01-30T06:46:37;73.43;;;12.57;;
81952;SDS011;71454;55.476;14.282;2024-01-30T06:49:03;39.70;;;10.77;;
81952;SDS011;71454;55.476;14.282;2024-01-30T06:51:28;73.67;;;14.23;;
81952;SDS011;71454;55.476;14.282;2024-01-30T06:53:53;74.17;;;13.37;;
81952;SDS011;71454;55.476;14.282;2024-01-30T06:56:19;62.05;;;13.40;;
81952;SDS011;71454;55.476;14.282;2024-01-30T06:58:48;68.32;;;12.07;;
81952;SDS011;71454;55.476;14.282;2024-01-30T07:01:13;46.22;;;12.18;;
81952;SDS011;71454;55.476;14.282;2024-01-30T07:03:39;76.05;;;13.65;;
81952;SDS011;71454;55.476;14.282;2024-01-30T07:06:04;59.55;;;14.05;;
81952;SDS011;71454;55.476;14.282;2024-01-30T07:08:30;53.92;;;13.20;;
81952;SDS011;71454;55.476;14.282;2024-01-30T07:10:55;62.17;;;15.13;;
81952;SDS011;71454;55.476;14.282;2024-01-30T07:13:21;50.50;;;13.70;;
81952;SDS011;71454;55.476;14.282;2024-01-30T07:15:46;69.15;;;13.43;;
81952;SDS011;71454;55.476;14.282;2024-01-30T07:18:11;61.90;;;14.52;;
81952;SDS011;71454;55.476;14.282;2024-01-30T07:20:39;62.65;;;12.85;;
81952;SDS011;71454;55.476;14.282;2024-01-30T07:23:10;62.33;;;12.48;;
81952;SDS011;71454;55.476;14.282;2024-01-30T07:25:38;75.00;;;12.43;;
81952;SDS011;71454;55.476;14.282;2024-01-30T07:28:06;59.22;;;14.05;;
81952;SDS011;71454;55.476;14.282;2024-01-30T07:30:31;84.47;;;15.45;;
81952;SDS011;71454;55.476;14.282;2024-01-30T07:32:56;65.47;;;12.83;;
81952;SDS011;71454;55.476;14.282;2024-01-30T07:35:22;60.57;;;12.13;;
81952;SDS011;71454;55.476;14.282;2024-01-30T07:37:47;67.82;;;12.95;;
81952;SDS011;71454;55.476;14.282;2024-01-30T07:40:12;59.70;;;13.23;;
81952;SDS011;71454;55.476;14.282;2024-01-30T07:42:38;65.03;;;15.80;;
81952;SDS011;71454;55.476;14.282;2024-01-30T07:45:03;61.15;;;15.35;;
81952;SDS011;71454;55.476;14.282;2024-01-30T07:47:29;63.20;;;14.25;;
81952;SDS011;71454;55.476;14.282;2024-01-30T07:49:54;59.03;;;12.93;;
81952;SDS011;71454;55.476;14.282;2024-01-30T07:52:19;52.08;;;12.05;;
81952;SDS011;71454;55.476;14.282;2024-01-30T07:54:44;55.72;;;11.20;;
81952;SDS011;71454;55.476;14.282;2024-01-30T07:57:10;46.80;;;13.20;;
81952;SDS011;71454;55.476;14.282;2024-01-30T07:59:35;48.97;;;10.48;;
81952;SDS011;71454;55.476;14.282;2024-01-30T08:02:00;50.03;;;12.07;;
81952;SDS011;71454;55.476;14.282;2024-01-30T08:04:26;44.93;;;11.90;;
81952;SDS011;71454;55.476;14.282;2024-01-30T08:06:51;48.50;;;11.67;;
81952;SDS011;71454;55.476;14.282;2024-01-30T08:09:16;60.40;;;13.10;;
81952;SDS011;71454;55.476;14.282;2024-01-30T08:11:41;44.50;;;11.30;;
81952;SDS011;71454;55.476;14.282;2024-01-30T08:14:07;54.55;;;13.40;;
81952;SDS011;71454;55.476;14.282;2024-01-30T08:16:32;53.50;;;12.23;;
81952;SDS011;71454;55.476;14.282;2024-01-30T08:18:57;52.63;;;13.43;;
81952;SDS011;71454;55.476;14.282;2024-01-30T08:21:23;79.68;;;13.65;;
81952;SDS011;71454;55.476;14.282;2024-01-30T08:23:48;60.10;;;13.05;;
81952;SDS011;71454;55.476;14.282;2024-01-30T08:26:13;90.67;;;14.30;;
81952;SDS011;71454;55.476;14.282;2024-01-30T08:28:38;70.43;;;14.20;;
81952;SDS011;71454;55.476;14.282;2024-01-30T08:31:04;84.00;;;14.20;;
81952;SDS011;71454;55.476;14.282;2024-01-30T08:33:29;54.25;;;11.15;;
81952;SDS011;71454;55.476;14.282;2024-01-30T08:35:54;63.00;;;12.18;;
81952;SDS011;71454;55.476;14.282;2024-01-30T08:38:20;64.77;;;12.77;;
81952;SDS011;71454;55.476;14.282;2024-01-30T08:40:45;65.70;;;12.20;;
81952;SDS011;71454;55.476;14.282;2024-01-30T08:43:10;83.05;;;14.82;;
81952;SDS011;71454;55.476;14.282;2024-01-30T08:45:36;101.55;;;14.77;;
81952;SDS011;71454;55.476;14.282;2024-01-30T08:48:01;66.15;;;13.57;;
81952;SDS011;71454;55.476;14.282;2024-01-30T08:50:26;53.80;;;12.23;;
81952;SDS011;71454;55.476;14.282;2024-01-30T08:52:52;61.88;;;13.93;;
81952;SDS011;71454;55.476;14.282;2024-01-30T08:55:17;60.03;;;12.35;;
81952;SDS011;71454;55.476;14.282;2024-01-30T08:57:42;66.03;;;14.05;;
81952;SDS011;71454;55.476;14.282;2024-01-30T09:00:08;57.95;;;12.40;;
81952;SDS011;71454;55.476;14.282;2024-01-30T09:02:35;57.28;;;14.38;;
81952;SDS011;71454;55.476;14.282;2024-01-30T09:05:00;47.50;;;12.48;;
81952;SDS011;71454;55.476;14.282;2024-01-30T09:07:26;44.00;;;11.70;;
81952;SDS011;71454;55.476;14.282;2024-01-30T09:09:51;47.65;;;12.30;;
81952;SDS011;71454;55.476;14.282;2024-01-30T09:12:16;42.90;;;12.90;;
81952;SDS011;71454;55.476;14.282;2024-01-30T09:14:41;37.70;;;11.95;;
81952;SDS011;71454;55.476;14.282;2024-01-30T09:17:07;46.22;;;11.65;;
81952;SDS011;71454;55.476;14.282;2024-01-30T09:19:33;32.13;;;10.80;;
81952;SDS011;71454;55.476;14.282;2024-01-30T09:21:58;33.28;;;11.80;;
81952;SDS011;71454;55.476;14.282;2024-01-30T09:24:23;31.25;;;10.98;;
81952;SDS011;71454;55.476;14.282;2024-01-30T09:26:49;33.92;;;10.65;;
81952;SDS011;71454;55.476;14.282;2024-01-30T09:29:14;33.27;;;11.57;;
81952;SDS011;71454;55.476;14.282;2024-01-30T09:31:39;34.95;;;10.23;;
81952;SDS011;71454;55.476;14.282;2024-01-30T09:34:07;29.58;;;10.90;;
81952;SDS011;71454;55.476;14.282;2024-01-30T09:36:33;30.98;;;9.82;;
81952;SDS011;71454;55.476;14.282;2024-01-30T09:38:58;22.23;;;9.32;;
81952;SDS011;71454;55.476;14.282;2024-01-30T09:41:23;26.20;;;10.07;;
81952;SDS011;71454;55.476;14.282;2024-01-30T09:43:49;24.92;;;8.68;;
81952;SDS011;71454;55.476;14.282;2024-01-30T09:46:16;24.55;;;8.90;;
81952;SDS011;71454;55.476;14.282;2024-01-30T09:48:42;20.92;;;8.65;;
81952;SDS011;71454;55.476;14.282;2024-01-30T09:51:10;21.90;;;8.43;;
81952;SDS011;71454;55.476;14.282;2024-01-30T09:53:36;19.88;;;8.13;;
81952;SDS011;71454;55.476;14.282;2024-01-30T09:56:02;21.10;;;8.15;;
81952;SDS011;71454;55.476;14.282;2024-01-30T09:58:27;18.45;;;7.63;;
81952;SDS011;71454;55.476;14.282;2024-01-30T10:00:53;17.02;;;7.30;;
81952;SDS011;71454;55.476;14.282;2024-01-30T10:03:19;17.10;;;7.90;;
81952;SDS011;71454;55.476;14.282;2024-01-30T10:05:45;18.17;;;7.47;;
81952;SDS011;71454;55.476;14.282;2024-01-30T10:08:15;13.43;;;6.50;;
81952;SDS011;71454;55.476;14.282;2024-01-30T10:10:44;18.85;;;6.85;;
81952;SDS011;71454;55.476;14.282;2024-01-30T10:13:10;15.70;;;6.55;;
81952;SDS011;71454;55.476;14.282;2024-01-30T10:15:36;14.57;;;6.05;;
81952;SDS011;71454;55.476;14.282;2024-01-30T10:18:04;13.10;;;6.43;;
81952;SDS011;71454;55.476;14.282;2024-01-30T10:20:31;12.40;;;5.93;;
81952;SDS011;71454;55.476;14.282;2024-01-30T10:22:57;15.68;;;5.82;;
81952;SDS011;71454;55.476;14.282;2024-01-30T10:25:22;12.65;;;6.40;;
81952;SDS011;71454;55.476;14.282;2024-01-30T10:27:52;13.43;;;6.53;;
81952;SDS011;71454;55.476;14.282;2024-01-30T10:30:17;13.02;;;5.88;;
81952;SDS011;71454;55.476;14.282;2024-01-30T10:32:42;11.57;;;6.13;;
81952;SDS011;71454;55.476;14.282;2024-01-30T10:35:08;16.20;;;6.38;;
81952;SDS011;71454;55.476;14.282;2024-01-30T10:37:34;13.18;;;6.20;;
81952;SDS011;71454;55.476;14.282;2024-01-30T10:40:02;11.70;;;5.43;;
81952;SDS011;71454;55.476;14.282;2024-01-30T10:42:28;15.27;;;6.22;;
81952;SDS011;71454;55.476;14.282;2024-01-30T10:44:57;14.00;;;6.03;;
81952;SDS011;71454;55.476;14.282;2024-01-30T10:47:26;12.85;;;6.18;;
81952;SDS011;71454;55.476;14.282;2024-01-30T10:49:51;12.85;;;5.70;;
81952;SDS011;71454;55.476;14.282;2024-01-30T10:52:18;12.95;;;6.05;;
81952;SDS011;71454;55.476;14.282;2024-01-30T10:54:44;13.20;;;6.13;;
81952;SDS011;71454;55.476;14.282;2024-01-30T10:57:09;13.27;;;6.03;;
81952;SDS011;71454;55.476;14.282;2024-01-30T10:59:36;15.98;;;6.65;;
81952;SDS011;71454;55.476;14.282;2024-01-30T11:02:01;15.77;;;7.63;;
81952;SDS011;71454;55.476;14.282;2024-01-30T11:04:27;19.17;;;8.68;;
81952;SDS011;71454;55.476;14.282;2024-01-30T11:06:52;20.48;;;8.15;;
81952;SDS011;71454;55.476;14.282;2024-01-30T11:09:19;21.35;;;9.48;;
81952;SDS011;71454;55.476;14.282;2024-01-30T11:11:48;18.13;;;8.15;;
81952;SDS011;71454;55.476;14.282;2024-01-30T11:14:13;19.95;;;8.13;;
81952;SDS011;71454;55.476;14.282;2024-01-30T11:16:39;17.70;;;8.70;;
81952;SDS011;71454;55.476;14.282;2024-01-30T11:19:05;18.77;;;7.80;;
81952;SDS011;71454;55.476;14.282;2024-01-30T11:21:41;17.05;;;7.97;;
81952;SDS011;71454;55.476;14.282;2024-01-30T11:24:06;17.80;;;8.82;;
81952;SDS011;71454;55.476;14.282;2024-01-30T11:26:32;18.92;;;7.90;;
81952;SDS011;71454;55.476;14.282;2024-01-30T11:28:58;17.80;;;8.07;;
81952;SDS011;71454;55.476;14.282;2024-01-30T11:31:23;21.40;;;8.47;;
81952;SDS011;71454;55.476;14.282;2024-01-30T11:33:52;19.52;;;7.90;;
81952;SDS011;71454;55.476;14.282;2024-01-30T11:36:17;16.85;;;7.63;;
81952;SDS011;71454;55.476;14.282;2024-01-30T11:38:45;18.80;;;8.32;;
81952;SDS011;71454;55.476;14.282;2024-01-30T11:41:11;20.10;;;8.77;;
81952;SDS011;71454;55.476;14.282;2024-01-30T11:43:38;19.95;;;8.27;;
81952;SDS011;71454;55.476;14.282;2024-01-30T11:46:05;18.52;;;8.23;;
81952;SDS011;71454;55.476;14.282;2024-01-30T11:48:30;17.58;;;7.75;;
81952;SDS011;71454;55.476;14.282;2024-01-30T11:50:55;18.40;;;8.77;;
81952;SDS011;71454;55.476;14.282;2024-01-30T11:53:21;16.60;;;7.63;;
81952;SDS011;71454;55.476;14.282;2024-01-30T11:55:50;12.43;;;6.13;;
81952;SDS011;71454;55.476;14.282;2024-01-30T11:58:16;11.30;;;5.50;;
81952;SDS011;71454;55.476;14.282;2024-01-30T12:00:41;13.05;;;5.28;;
81952;SDS011;71454;55.476;14.282;2024-01-30T12:03:07;13.13;;;6.18;;
81952;SDS011;71454;55.476;14.282;2024-01-30T12:05:32;11.35;;;5.70;;
81952;SDS011;71454;55.476;14.282;2024-01-30T12:08:01;10.82;;;5.22;;
81952;SDS011;71454;55.476;14.282;2024-01-30T12:10:26;11.90;;;5.47;;
81952;SDS011;71454;55.476;14.282;2024-01-30T12:12:52;14.43;;;5.80;;
81952;SDS011;71454;55.476;14.282;2024-01-30T12:15:18;13.20;;;5.60;;
81952;SDS011;71454;55.476;14.282;2024-01-30T12:17:46;10.45;;;5.50;;
81952;SDS011;71454;55.476;14.282;2024-01-30T12:20:12;10.73;;;5.38;;
81952;SDS011;71454;55.476;14.282;2024-01-30T12:25:04;10.63;;;5.43;;
81952;SDS011;71454;55.476;14.282;2024-01-30T12:27:30;11.98;;;5.15;;
81952;SDS011;71454;55.476;14.282;2024-01-30T12:29:56;11.95;;;5.68;;
81952;SDS011;71454;55.476;14.282;2024-01-30T12:32:22;11.18;;;5.50;;
81952;SDS011;71454;55.476;14.282;2024-01-30T12:34:47;12.40;;;5.70;;
81952;SDS011;71454;55.476;14.282;2024-01-30T12:37:13;11.30;;;5.85;;
81952;SDS011;71454;55.476;14.282;2024-01-30T12:39:38;13.30;;;6.25;;
81952;SDS011;71454;55.476;14.282;2024-01-30T12:42:04;11.05;;;5.63;;
81952;SDS011;71454;55.476;14.282;2024-01-30T12:44:29;13.30;;;6.10;;
81952;SDS011;71454;55.476;14.282;2024-01-30T12:46:54;11.10;;;5.13;;
81952;SDS011;71454;55.476;14.282;2024-01-30T12:49:20;13.32;;;5.15;;
81952;SDS011;71454;55.476;14.282;2024-01-30T12:51:46;11.05;;;5.53;;
81952;SDS011;71454;55.476;14.282;2024-01-30T12:54:12;11.20;;;5.78;;
81952;SDS011;71454;55.476;14.282;2024-01-30T12:56:37;12.02;;;5.63;;
81952;SDS011;71454;55.476;14.282;2024-01-30T12:59:03;13.13;;;6.20;;
81952;SDS011;71454;55.476;14.282;2024-01-30T13:01:28;15.53;;;6.30;;
81952;SDS011;71454;55.476;14.282;2024-01-30T13:03:53;12.38;;;5.97;;
81952;SDS011;71454;55.476;14.282;2024-01-30T13:06:18;14.15;;;5.50;;
81952;SDS011;71454;55.476;14.282;2024-01-30T13:08:44;13.40;;;6.30;;
81952;SDS011;71454;55.476;14.282;2024-01-30T13:11:09;13.10;;;6.00;;
81952;SDS011;71454;55.476;14.282;2024-01-30T13:13:34;11.55;;;6.20;;
81952;SDS011;71454;55.476;14.282;2024-01-30T13:16:00;12.13;;;5.43;;
81952;SDS011;71454;55.476;14.282;2024-01-30T13:18:26;16.13;;;6.45;;
81952;SDS011;71454;55.476;14.282;2024-01-30T13:20:54;10.95;;;6.07;;
81952;SDS011;71454;55.476;14.282;2024-01-30T13:23:19;12.88;;;6.82;;
81952;SDS011;71454;55.476;14.282;2024-01-30T13:25:45;13.25;;;6.28;;
81952;SDS011;71454;55.476;14.282;2024-01-30T13:28:10;12.32;;;5.90;;
81952;SDS011;71454;55.476;14.282;2024-01-30T13:30:35;16.95;;;8.05;;
81952;SDS011;71454;55.476;14.282;2024-01-30T13:33:00;16.85;;;7.57;;
81952;SDS011;71454;55.476;14.282;2024-01-30T13:35:26;14.70;;;6.07;;
81952;SDS011;71454;55.476;14.282;2024-01-30T13:37:51;12.17;;;5.50;;
81952;SDS011;71454;55.476;14.282;2024-01-30T13:40:16;13.05;;;5.70;;
81952;SDS011;71454;55.476;14.282;2024-01-30T13:42:42;12.85;;;6.00;;
81952;SDS011;71454;55.476;14.282;2024-01-30T13:45:07;11.75;;;5.45;;
81952;SDS011;71454;55.476;14.282;2024-01-30T13:47:34;14.80;;;6.47;;
81952;SDS011;71454;55.476;14.282;2024-01-30T13:50:00;14.82;;;6.22;;
81952;SDS011;71454;55.476;14.282;2024-01-30T13:52:25;14.63;;;6.45;;
81952;SDS011;71454;55.476;14.282;2024-01-30T13:54:50;16.30;;;6.70;;
81952;SDS011;71454;55.476;14.282;2024-01-30T13:57:16;16.10;;;6.78;;
81952;SDS011;71454;55.476;14.282;2024-01-30T13:59:41;14.40;;;6.57;;
81952;SDS011;71454;55.476;14.282;2024-01-30T14:02:07;14.40;;;6.10;;
81952;SDS011;71454;55.476;14.282;2024-01-30T14:04:33;15.77;;;7.07;;
81952;SDS011;71454;55.476;14.282;2024-01-30T14:06:58;16.60;;;6.68;;
81952;SDS011;71454;55.476;14.282;2024-01-30T14:09:24;15.70;;;7.15;;